Time;durP1;ratioP1;P1;durP2;ratioP2;P2;SDS_P1;SDS_P2;PMS_P1;PMS_P2;Temp;Humidity;BMP_temperature;BMP_pressure;BME280_temperature;BME280_humidity;BME280_pressure;Samples;Min_cycle;Max_cycle;Signal;HPM_P1;HPM_P2
2021/04/04 00:02:26;;;;;;;5.07;3.53;;;4.30;71.10;;;3.30;56.35;95281.03;5053450;28;20590;-84
2021/04/04 00:04:52;;;;;;;6.13;3.65;;;4.30;71.30;;;3.24;56.37;95278.97;5069798;28;20243;-84
2021/04/04 00:07:19;;;;;;;5.38;3.10;;;4.30;71.30;;;3.24;56.03;95284.16;5069494;28;20302;-85
2021/04/04 00:09:47;;;;;;;5.30;3.10;;;4.30;71.10;;;3.18;56.06;95282.13;5053026;28;20269;-83
2021/04/04 00:12:14;;;;;;;6.78;3.33;;;4.20;71.80;;;3.13;55.88;95287.72;5052375;28;20227;-83
2021/04/04 00:14:41;;;;;;;4.43;3.15;;;4.20;71.00;;;3.09;55.82;95288.09;5052868;28;20294;-84
2021/04/04 00:17:08;;;;;;;5.00;3.22;;;4.20;71.00;;;3.04;55.78;95289.34;5069356;28;20295;-84
2021/04/04 00:19:35;;;;;;;3.92;3.10;;;4.10;70.80;;;2.99;55.52;95290.69;5036279;28;20196;-84
2021/04/04 00:22:02;;;;;;;7.22;3.58;;;4.10;70.80;;;2.93;56.00;95288.66;5052719;28;20247;-84
2021/04/04 00:24:29;;;;;;;5.50;3.15;;;4.00;71.00;;;2.89;55.92;95285.50;5052457;28;20285;-83
2021/04/04 00:26:56;;;;;;;7.32;3.40;;;4.00;70.90;;;2.88;56.36;95289.06;5052265;28;20219;-84
2021/04/04 00:29:22;;;;;;;4.55;2.88;;;4.00;71.00;;;2.84;55.69;95285.09;5052715;28;20196;-84
2021/04/04 00:31:50;;;;;;;5.13;2.97;;;3.90;70.90;;;2.80;56.13;95281.16;5052804;28;20228;-84
2021/04/04 00:34:16;;;;;;;4.60;3.28;;;3.90;71.00;;;2.80;56.58;95283.75;5052477;28;20200;-84
2021/04/04 00:36:43;;;;;;;5.07;3.30;;;3.90;71.50;;;2.80;56.70;95287.13;5069071;28;20700;-84
2021/04/04 00:39:12;;;;;;;4.68;3.28;;;3.90;71.60;;;2.81;56.74;95288.78;5032736;28;20208;-84
2021/04/04 00:41:42;;;;;;;4.32;3.60;;;3.80;71.50;;;2.85;57.10;95289.34;5032084;28;20221;-84
2021/04/04 00:44:10;;;;;;;3.50;3.15;;;3.90;71.60;;;2.91;56.99;95288.78;5032413;28;20228;-84
2021/04/04 00:46:40;;;;;;;4.68;3.63;;;3.80;71.50;;;2.97;56.50;95287.44;5032206;28;20216;-84
2021/04/04 00:49:07;;;;;;;4.25;3.60;;;3.90;71.60;;;3.02;56.86;95293.03;5016139;28;20704;-84
2021/04/04 00:51:34;;;;;;;5.85;3.53;;;3.90;71.60;;;3.08;56.82;95289.91;5032033;28;20267;-84
2021/04/04 00:54:05;;;;;;;5.15;3.45;;;3.90;71.60;;;3.14;57.02;95291.13;5032311;28;20201;-84
2021/04/04 00:56:34;;;;;;;4.00;3.20;;;3.90;71.60;;;3.22;56.48;95282.66;5032321;28;20220;-84
2021/04/04 00:59:03;;;;;;;5.40;3.38;;;4.00;71.70;;;3.24;56.74;95285.94;5032348;28;20204;-84
2021/04/04 01:01:32;;;;;;;5.05;3.42;;;4.00;71.70;;;3.31;56.50;95287.84;5032262;28;20303;-84
2021/04/04 01:04:00;;;;;;;7.30;3.53;;;4.10;71.70;;;3.35;56.68;95293.56;5032497;28;20236;-84
2021/04/04 01:06:27;;;;;;;4.50;3.50;;;4.10;71.70;;;3.36;57.07;95298.63;5048534;28;20216;-83
2021/04/04 01:08:54;;;;;;;6.30;3.80;;;4.10;71.70;;;3.35;57.07;95290.97;5064708;28;20280;-84
2021/04/04 01:12:13;;;;;;;4.82;3.83;;;4.20;71.80;;;3.38;56.68;95292.47;5068741;28;20234;-84
2021/04/04 01:15:07;;;;;;;4.85;3.30;;;4.20;72.70;;;3.39;56.41;95281.16;5051281;28;20192;-84
2021/04/04 01:17:36;;;;;;;4.57;3.60;;;4.30;71.90;;;3.45;57.05;95293.56;5051824;28;20694;-84
2021/04/04 01:20:09;;;;;;;5.97;3.53;;;4.30;71.90;;;3.47;56.67;95295.06;5052336;28;20638;-84
2021/04/04 01:22:55;;;;;;;5.88;3.67;;;4.30;71.90;;;3.48;56.49;95294.09;5051661;28;20224;-84
2021/04/04 01:25:39;;;;;;;4.90;3.63;;;4.30;71.90;;;3.50;56.47;95299.97;5052127;28;20195;-84
2021/04/04 01:28:11;;;;;;;5.07;3.47;;;4.40;71.90;;;3.47;56.73;95286.47;5051481;28;20227;-84
2021/04/04 01:30:42;;;;;;;5.95;3.33;;;4.40;71.90;;;3.47;56.42;95292.47;5052276;28;20215;-84
2021/04/04 01:33:14;;;;;;;5.00;3.63;;;4.40;71.90;;;3.45;56.70;95299.56;5051753;28;20614;-84
2021/04/04 01:35:50;;;;;;;4.55;3.60;;;4.40;71.90;;;3.38;57.03;95295.88;5051887;28;20268;-83
2021/04/04 01:38:22;;;;;;;5.22;3.83;;;4.40;71.90;;;3.35;56.94;95294.38;5050927;28;20699;-84
2021/04/04 01:40:59;;;;;;;5.60;3.28;;;4.40;71.90;;;3.31;56.47;95311.19;5051342;28;20605;-83
2021/04/04 01:43:27;;;;;;;5.47;3.40;;;4.30;71.80;;;3.29;56.68;95301.91;5051451;28;20234;-83
2021/04/04 01:45:54;;;;;;;6.03;3.40;;;4.30;71.90;;;3.22;57.07;95291.25;5068115;28;20249;-84
2021/04/04 01:48:21;;;;;;;5.85;3.65;;;4.30;71.90;;;3.22;57.50;95303.41;5051750;28;20303;-84
2021/04/04 01:50:49;;;;;;;5.25;3.75;;;4.20;71.80;;;3.17;57.22;95296.03;5068564;28;20200;-84
2021/04/04 01:53:17;;;;;;;4.57;3.58;;;4.20;71.80;;;3.14;57.09;95299.72;5051660;28;20247;-84
2021/04/04 01:55:46;;;;;;;5.53;3.85;;;4.20;71.80;;;3.11;57.14;95293.97;5054756;28;20196;-85
2021/04/04 01:58:13;;;;;;;4.28;2.90;;;4.20;71.80;;;3.07;56.91;95298.63;5055161;28;20211;-84
2021/04/04 02:00:41;;;;;;;5.13;3.50;;;4.10;71.80;;;3.04;56.95;95291.94;5071850;28;20228;-84
2021/04/04 02:03:09;;;;;;;5.20;3.78;;;4.10;71.70;;;2.97;57.56;95296.03;5071912;28;20212;-84
2021/04/04 02:05:36;;;;;;;5.28;3.40;;;4.10;71.70;;;2.92;57.15;95298.22;5072048;28;20207;-83
2021/04/04 02:08:07;;;;;;;4.85;3.20;;;4.00;71.70;;;2.87;57.42;95295.22;5055137;28;20232;-84
2021/04/04 02:10:36;;;;;;;5.00;3.83;;;4.00;71.60;;;2.81;57.52;95300.94;5053681;28;20643;-84
2021/04/04 02:13:04;;;;;;;4.63;3.45;;;3.90;71.60;;;2.77;57.36;95308.16;5021504;28;20327;-84
2021/04/04 02:15:33;;;;;;;4.65;3.60;;;3.90;71.60;;;2.75;57.46;95306.63;5018563;28;20251;-83
2021/04/04 02:18:01;;;;;;;5.78;3.53;;;3.80;71.60;;;2.72;57.47;95298.19;5035281;28;20251;-84
2021/04/04 02:20:31;;;;;;;6.07;4.22;;;3.80;71.50;;;2.68;57.76;95295.97;5054799;28;20251;-84
2021/04/04 02:23:03;;;;;;;5.78;3.80;;;3.80;71.80;;;2.74;57.67;95302.41;5038214;28;20697;-84
2021/04/04 02:25:30;;;;;;;5.78;3.42;;;3.70;71.90;;;2.73;57.83;95309.34;5038492;28;20196;-84
2021/04/04 02:27:58;;;;;;;5.97;4.00;;;3.70;72.00;;;2.78;57.54;95298.59;5054892;28;20261;-84
2021/04/04 02:30:25;;;;;;;4.72;3.80;;;3.70;72.10;;;2.77;57.98;95300.38;5051968;28;20196;-84
2021/04/04 02:33:42;;;;;;;7.10;3.92;;;3.70;72.20;;;2.80;57.77;95299.28;5034528;28;20220;-84
2021/04/04 02:36:13;;;;;;;5.10;3.58;;;3.70;72.40;;;2.81;57.68;95306.91;5047429;28;20789;-83
2021/04/04 02:38:47;;;;;;;5.82;4.13;;;3.70;72.20;;;2.84;57.85;95311.81;5054729;28;20603;-84
2021/04/04 02:41:15;;;;;;;6.28;3.78;;;3.80;72.50;;;2.86;57.69;95309.13;5033035;28;20220;-84
2021/04/04 02:43:44;;;;;;;6.00;3.80;;;3.70;72.40;;;2.88;57.85;95313.19;5051281;28;20228;-84
2021/04/04 02:46:14;;;;;;;6.10;3.95;;;3.80;72.50;;;2.90;57.60;95302.69;5054215;28;20208;-84
2021/04/04 02:48:47;;;;;;;9.38;4.10;;;3.80;72.60;;;2.95;57.94;95303.09;5035855;28;20637;-84
2021/04/04 02:51:19;;;;;;;4.43;3.97;;;3.80;72.50;;;2.96;57.49;95309.94;5034781;28;20597;-84
2021/04/04 02:53:50;;;;;;;5.80;4.20;;;3.80;72.50;;;2.99;57.59;95314.84;5034504;28;20215;-84
2021/04/04 02:56:19;;;;;;;7.50;4.05;;;3.80;72.50;;;3.01;57.33;95314.72;5033714;28;20212;-84
2021/04/04 02:58:50;;;;;;;5.75;4.35;;;3.90;72.60;;;3.06;57.77;95314.31;5017882;28;20296;-84
2021/04/04 03:01:18;;;;;;;5.93;4.35;;;3.90;72.60;;;3.06;57.93;95309.94;5035276;28;20231;-84
2021/04/04 03:03:50;;;;;;;5.38;4.10;;;3.90;72.50;;;3.10;57.66;95306.13;5017922;28;20278;-84
2021/04/04 03:06:18;;;;;;;5.38;4.15;;;4.00;72.60;;;3.14;57.06;95310.09;5017617;28;20213;-83
2021/04/04 03:08:51;;;;;;;5.13;4.18;;;4.00;72.50;;;3.12;57.40;95308.59;5048888;28;20236;-84
2021/04/04 03:11:19;;;;;;;6.43;4.03;;;4.00;72.50;;;3.19;57.47;95312.28;5070332;28;20212;-84
2021/04/04 03:13:52;;;;;;;4.70;4.00;;;4.00;72.50;;;3.17;57.31;95317.59;5053683;28;20628;-84
2021/04/04 03:16:20;;;;;;;6.75;4.22;;;4.00;72.30;;;3.17;57.06;95309.81;5070866;28;20278;-84
2021/04/04 03:18:49;;;;;;;5.18;4.03;;;4.00;72.20;;;3.15;56.87;95318.66;5037424;28;20204;-84
2021/04/04 03:21:17;;;;;;;5.68;3.97;;;4.00;72.00;;;3.08;57.16;95307.22;5053861;28;20238;-84
2021/04/04 03:23:45;;;;;;;4.70;3.95;;;4.00;71.80;;;3.01;56.99;95302.56;5070393;28;20223;-83
2021/04/04 03:26:13;;;;;;;6.28;4.50;;;4.00;71.70;;;2.97;56.83;95310.75;5053683;28;20733;-84
2021/04/04 03:28:42;;;;;;;6.35;4.57;;;4.00;71.70;;;2.88;57.19;95317.53;5070176;28;20253;-84
2021/04/04 03:31:14;;;;;;;4.80;3.90;;;3.90;71.60;;;2.84;57.35;95311.00;5037468;28;20673;-83
2021/04/04 03:33:46;;;;;;;5.72;4.60;;;3.90;71.90;;;2.78;57.40;95316.72;5054383;28;20254;-83
2021/04/04 03:36:21;;;;;;;6.15;4.35;;;3.80;72.00;;;2.69;57.65;95311.38;5036996;28;20187;-84
2021/04/04 03:38:51;;;;;;;5.13;4.00;;;3.80;73.10;;;2.69;57.52;95313.16;5053423;28;20214;-83
2021/04/04 03:41:21;;;;;;;6.00;4.40;;;3.70;72.00;;;2.64;57.36;95316.16;5053533;28;20204;-83
2021/04/04 03:43:50;;;;;;;5.43;4.07;;;3.70;71.90;;;2.59;57.76;95313.16;5069578;28;20270;-83
2021/04/04 03:46:23;;;;;;;7.47;5.22;;;3.70;71.90;;;2.52;57.95;95314.63;5053246;28;20219;-84
2021/04/04 03:48:53;;;;;;;6.20;3.90;;;3.60;71.90;;;2.46;57.68;95307.38;5070030;28;20196;-84
2021/04/04 03:51:27;;;;;;;6.82;4.53;;;3.60;71.90;;;2.41;57.66;95300.00;5031247;28;20776;-83
2021/04/04 03:53:57;;;;;;;4.93;4.15;;;3.50;72.00;;;2.35;57.70;95300.53;5031318;28;20223;-83
2021/04/04 03:56:35;;;;;;;6.00;4.97;;;3.50;71.90;;;2.27;57.90;95292.59;5045727;28;20267;-83
2021/04/04 03:59:07;;;;;;;7.80;4.75;;;3.50;72.20;;;2.21;58.00;95292.19;5049191;28;20243;-83
2021/04/04 04:01:38;;;;;;;6.85;4.30;;;3.40;72.10;;;2.14;57.51;95288.47;5045262;28;20209;-84
2021/04/04 04:04:10;;;;;;;6.68;5.20;;;3.30;72.90;;;2.12;57.85;95292.94;5013418;28;20231;-83
2021/04/04 04:06:42;;;;;;;6.07;4.20;;;3.30;72.10;;;2.06;57.69;95299.47;5016396;28;20220;-84
2021/04/04 04:09:17;;;;;;;4.20;3.80;;;3.30;72.10;;;2.01;57.80;95296.44;5011692;28;20197;-83
2021/04/04 04:11:47;;;;;;;6.18;4.28;;;3.20;72.20;;;1.95;57.54;95286.59;5033211;28;20318;-83
2021/04/04 04:14:19;;;;;;;7.78;4.82;;;3.10;72.00;;;1.93;57.85;95296.28;5045964;28;20709;-83
2021/04/04 04:16:45;;;;;;;6.97;4.57;;;3.10;72.10;;;1.89;57.72;95290.56;5049980;28;20220;-85
2021/04/04 04:19:12;;;;;;;4.20;3.42;;;3.00;72.00;;;1.86;57.63;95293.38;5031172;28;20322;-84
2021/04/04 04:21:41;;;;;;;5.60;4.05;;;3.00;72.00;;;1.83;57.60;95298.00;5014753;28;20601;-84
2021/04/04 04:24:15;;;;;;;5.43;3.92;;;3.00;72.10;;;1.76;57.58;95293.34;5030155;28;20701;-84
2021/04/04 04:26:49;;;;;;;5.75;4.60;;;2.90;72.20;;;1.74;57.73;95290.03;5040061;28;20277;-84
2021/04/04 04:29:19;;;;;;;6.45;4.22;;;2.90;72.20;;;1.71;58.05;95295.50;5016893;28;20230;-84
2021/04/04 04:31:51;;;;;;;5.88;4.72;;;2.90;72.30;;;1.68;58.31;95290.56;5048955;28;20228;-84
2021/04/04 04:34:21;;;;;;;5.38;4.18;;;2.80;72.30;;;1.67;58.16;95285.53;5048993;28;20655;-84
2021/04/04 04:36:51;;;;;;;6.38;4.75;;;2.80;72.40;;;1.65;58.47;95295.16;5032579;28;20251;-84
2021/04/04 04:39:18;;;;;;;6.30;4.38;;;2.80;72.50;;;1.65;58.49;95292.56;5016309;28;20212;-84
2021/04/04 04:41:48;;;;;;;6.53;4.40;;;2.70;72.50;;;1.64;58.25;95294.34;5031444;28;20220;-84
2021/04/04 04:44:20;;;;;;;6.55;4.68;;;2.70;72.60;;;1.63;58.49;95295.31;5015539;28;20224;-83
2021/04/04 04:46:49;;;;;;;5.32;4.75;;;2.70;72.80;;;1.62;58.26;95291.06;5015963;28;20247;-84
2021/04/04 04:49:16;;;;;;;5.82;3.88;;;2.70;72.60;;;1.60;57.94;95287.81;5016110;28;20247;-84
2021/04/04 04:51:49;;;;;;;5.28;3.95;;;2.70;72.60;;;1.62;58.33;95303.19;5032405;28;20263;-84
2021/04/04 04:54:17;;;;;;;6.15;4.32;;;2.70;72.70;;;1.63;58.20;95307.41;5016101;28;20201;-83
2021/04/04 04:56:45;;;;;;;4.93;3.92;;;2.70;72.70;;;1.65;58.56;95302.91;5032333;28;20391;-84
2021/04/04 04:59:12;;;;;;;6.20;4.35;;;2.70;73.00;;;1.71;58.76;95295.50;5015688;28;20184;-83
2021/04/04 05:01:43;;;;;;;6.00;4.32;;;2.70;73.10;;;1.79;58.70;95301.78;4999512;28;20228;-84
2021/04/04 05:04:10;;;;;;;5.20;4.10;;;2.70;73.20;;;1.86;58.61;95295.16;4999389;28;20253;-84
2021/04/04 05:06:37;;;;;;;7.25;4.50;;;2.80;73.20;;;1.91;58.91;95304.16;4999384;28;20282;-83
2021/04/04 05:09:07;;;;;;;5.72;4.45;;;2.80;73.40;;;1.93;58.82;95296.28;5045883;28;20208;-84
2021/04/04 05:11:44;;;;;;;6.53;4.65;;;2.80;73.30;;;1.98;58.43;95293.28;5015572;28;20228;-83
2021/04/04 05:14:12;;;;;;;5.03;3.97;;;2.90;73.60;;;2.10;58.79;95301.78;5032037;28;20654;-84
2021/04/04 05:16:40;;;;;;;6.32;4.30;;;2.90;73.40;;;2.16;58.40;95306.44;5032202;28;20242;-83
2021/04/04 05:19:08;;;;;;;6.88;4.38;;;3.00;73.50;;;2.20;58.93;95308.66;5031226;28;20216;-83
2021/04/04 05:21:38;;;;;;;8.10;4.43;;;3.00;74.40;;;2.26;58.62;95309.06;5015400;28;20216;-84
2021/04/04 05:24:12;;;;;;;4.93;4.28;;;3.00;73.50;;;2.29;58.55;95306.25;5031971;28;20220;-84
2021/04/04 05:26:47;;;;;;;7.45;5.10;;;3.10;73.60;;;2.30;58.56;95307.88;5015722;28;20223;-84
2021/04/04 05:29:19;;;;;;;8.55;4.80;;;3.10;73.60;;;2.33;58.63;95315.38;5017974;28;20644;-83
2021/04/04 05:31:54;;;;;;;5.15;4.00;;;3.20;73.70;;;2.37;58.48;95319.34;5018995;28;20260;-84
2021/04/04 05:34:29;;;;;;;5.72;4.38;;;3.20;73.60;;;2.40;58.55;95319.91;5018793;28;20212;-83
2021/04/04 05:37:07;;;;;;;6.28;4.57;;;3.20;73.60;;;2.44;58.97;95319.63;5034820;28;20223;-85
2021/04/04 05:39:37;;;;;;;6.93;4.32;;;3.30;73.70;;;2.50;58.83;95325.13;5035327;28;20231;-86
2021/04/04 05:42:07;;;;;;;7.63;5.13;;;3.30;73.70;;;2.55;58.89;95328.13;5052018;28;20279;-84
2021/04/04 05:44:45;;;;;;;7.60;4.63;;;3.40;73.80;;;2.62;58.74;95327.59;5018584;28;20217;-82
2021/04/04 05:47:28;;;;;;;6.38;4.47;;;3.40;73.70;;;2.65;58.47;95317.78;5034582;28;20216;-85
2021/04/04 05:50:30;;;;;;;6.80;5.03;;;3.40;73.80;;;2.68;58.62;95317.50;5033567;28;20197;-84
2021/04/04 05:53:23;;;;;;;6.07;4.47;;;3.50;73.70;;;2.70;58.23;95320.00;5017317;28;20223;-84
2021/04/04 05:56:15;;;;;;;7.43;4.85;;;3.50;73.60;;;2.75;58.77;95319.56;5017853;28;20189;-84
2021/04/04 05:58:58;;;;;;;6.28;5.03;;;3.60;73.60;;;2.73;58.47;95317.13;5033814;28;20277;-84
2021/04/04 06:01:25;;;;;;;7.18;5.40;;;3.60;73.70;;;2.81;58.91;95326.84;5033655;28;20308;-85
2021/04/04 06:04:38;;;;;;;8.20;5.60;;;3.60;73.70;;;2.91;58.79;95326.84;5018876;28;20224;-84
2021/04/04 06:07:38;;;;;;;7.13;5.45;;;3.70;74.00;;;2.95;58.73;95328.22;5045836;28;20274;-84
2021/04/04 06:10:54;;;;;;;7.47;5.30;;;3.70;73.70;;;3.03;58.64;95330.94;5037426;28;20210;-84
2021/04/04 06:13:42;;;;;;;8.88;5.25;;;3.80;73.70;;;3.11;58.61;95331.06;5023909;28;20298;-83
2021/04/04 06:16:17;;;;;;;6.65;4.95;;;3.90;73.80;;;3.20;58.74;95327.69;5053393;28;20266;-85
2021/04/04 06:19:17;;;;;;;7.47;5.35;;;3.90;73.90;;;3.32;58.34;95332.72;5054928;28;20196;-84
2021/04/04 06:22:19;;;;;;;9.40;5.53;;;4.00;73.70;;;3.41;58.43;95331.13;5032063;28;20221;-86
2021/04/04 06:25:41;;;;;;;6.07;5.20;;;4.00;73.80;;;3.51;57.95;95324.94;5050591;28;20216;-85
2021/04/04 06:28:44;;;;;;;8.55;5.55;;;4.20;73.80;;;3.63;58.00;95340.38;5044915;28;20240;-84
2021/04/04 06:31:52;;;;;;;6.53;4.82;;;4.30;73.60;;;3.71;57.77;95343.09;5063702;28;20223;-84
2021/04/04 06:34:46;;;;;;;7.75;5.28;;;4.40;73.50;;;3.75;57.29;95339.25;5043362;28;20200;-85
2021/04/04 06:37:40;;;;;;;8.07;6.10;;;4.40;73.40;;;3.78;57.59;95338.97;5034719;28;20251;-84
2021/04/04 06:40:12;;;;;;;6.53;5.60;;;4.50;73.40;;;3.84;57.15;95340.19;5034280;28;20205;-86
2021/04/04 06:42:56;;;;;;;6.97;5.55;;;4.50;73.10;;;3.86;57.17;95335.69;5037624;28;20238;-84
2021/04/04 06:45:47;;;;;;;6.78;5.43;;;4.60;73.00;;;3.91;56.95;95341.28;5053518;28;20271;-85
2021/04/04 06:48:46;;;;;;;8.50;5.65;;;4.60;72.90;;;3.94;56.71;95343.59;5038035;28;20629;-85
2021/04/04 06:51:53;;;;;;;5.72;5.00;;;4.70;72.80;;;4.00;56.65;95350.84;5034464;28;20195;-85
2021/04/04 06:54:47;;;;;;;7.68;5.40;;;4.70;72.80;;;4.06;57.02;95346.03;5014804;28;20527;-85
2021/04/04 06:57:57;;;;;;;8.43;5.65;;;4.80;72.80;;;4.15;56.82;95350.34;5071141;28;20577;-85
2021/04/04 07:01:02;;;;;;;8.13;5.20;;;4.80;72.70;;;4.20;56.57;95344.75;5054076;28;20204;-84
2021/04/04 07:03:45;;;;;;;8.65;5.50;;;4.90;72.60;;;4.25;56.60;95350.38;5034551;28;20193;-85
2021/04/04 07:06:47;;;;;;;6.10;4.95;;;4.90;72.30;;;4.30;56.66;95350.75;5018091;28;20200;-85
2021/04/04 07:10:04;;;;;;;7.13;4.95;;;5.00;72.50;;;4.40;56.53;95335.94;5020566;28;20223;-85
2021/04/04 07:13:05;;;;;;;7.18;4.82;;;5.00;72.40;;;4.49;56.36;95349.84;5041272;28;20690;-86
2021/04/04 07:16:09;;;;;;;5.82;4.72;;;5.10;72.50;;;4.60;56.07;95352.28;5017675;28;20690;-86
2021/04/04 07:18:57;;;;;;;5.88;4.35;;;5.20;72.50;;;4.69;55.87;95345.38;5035813;28;20197;-85
2021/04/04 07:22:18;;;;;;;5.40;4.38;;;5.30;72.60;;;4.79;55.85;95353.13;5050573;28;20243;-86
2021/04/04 07:25:25;;;;;;;5.80;3.85;;;5.30;72.60;;;4.92;55.73;95353.59;5044448;28;20220;-85
2021/04/04 07:28:10;;;;;;;4.40;4.00;;;5.40;72.60;;;5.04;55.74;95343.00;5053808;28;20253;-86
2021/04/04 07:30:58;;;;;;;5.70;3.60;;;5.50;72.70;;;5.18;55.27;95346.88;5053860;28;20245;-85
2021/04/04 07:33:51;;;;;;;4.28;3.45;;;5.60;72.50;;;5.33;55.43;95348.00;5053087;28;20646;-86
2021/04/04 07:36:44;;;;;;;4.22;3.42;;;5.70;72.80;;;5.41;55.04;95348.06;5053757;28;20310;-86
2021/04/04 07:39:36;;;;;;;3.90;3.47;;;5.80;72.20;;;5.47;54.69;95348.44;5054096;28;20200;-85
2021/04/04 07:42:26;;;;;;;5.70;3.65;;;5.90;71.70;;;5.52;54.38;95354.03;5054143;28;20218;-85
2021/04/04 07:45:25;;;;;;;4.05;3.20;;;6.00;71.70;;;5.58;54.49;95346.44;5037445;28;20224;-85
2021/04/04 07:47:58;;;;;;;5.43;3.70;;;6.10;71.70;;;5.60;54.20;95341.91;5070069;28;20262;-85
2021/04/04 07:50:34;;;;;;;3.92;3.50;;;6.10;71.50;;;5.63;54.08;95339.94;5070288;28;20637;-85
2021/04/04 07:53:50;;;;;;;4.15;3.42;;;6.20;71.40;;;5.72;53.84;95346.88;5052429;28;20306;-86
2021/04/04 07:56:55;;;;;;;3.85;3.25;;;6.20;71.00;;;5.87;54.00;95344.53;5053553;28;20224;-86
2021/04/04 07:59:32;;;;;;;5.15;3.33;;;6.30;71.10;;;5.97;53.37;95340.06;5069888;28;20193;-85
2021/04/04 08:02:10;;;;;;;5.88;4.60;;;6.40;71.00;;;6.07;53.68;95337.38;5053418;28;20239;-87
2021/04/04 08:04:57;;;;;;;4.57;3.67;;;6.50;70.90;;;6.18;53.55;95344.13;5045657;28;20224;-85
2021/04/04 08:07:47;;;;;;;4.00;3.40;;;6.60;70.80;;;6.29;53.54;95340.44;5033391;28;20228;-85
2021/04/04 08:10:40;;;;;;;5.00;3.70;;;6.60;71.00;;;6.39;53.23;95347.16;5017273;28;20543;-86
2021/04/04 08:13:30;;;;;;;3.08;2.78;;;6.70;70.70;;;6.50;52.96;95342.66;5037010;28;20227;-85
2021/04/04 08:16:28;;;;;;;3.85;3.10;;;6.80;70.30;;;6.62;52.45;95346.63;5056849;28;20192;-88
2021/04/04 08:18:55;;;;;;;3.10;2.80;;;6.90;70.60;;;6.69;52.17;95344.22;5053335;28;20259;-86
2021/04/04 08:21:34;;;;;;;4.00;3.00;;;7.10;70.60;;;6.77;51.78;95339.03;5052879;28;20224;-85
2021/04/04 08:24:37;;;;;;;4.85;3.30;;;7.10;69.90;;;6.83;51.35;95345.41;5032956;28;20220;-87
2021/04/04 08:27:23;;;;;;;3.13;2.80;;;7.20;69.70;;;6.84;50.41;95344.44;5037808;28;20306;-85
2021/04/04 08:29:57;;;;;;;4.05;2.70;;;7.30;69.20;;;6.81;49.20;95337.75;5032870;28;20250;-85
2021/04/04 08:32:51;;;;;;;3.35;2.90;;;7.30;68.40;;;6.79;49.50;95336.28;5032836;28;20227;-86
2021/04/04 08:35:29;;;;;;;3.40;2.47;;;7.40;68.20;;;6.87;50.12;95338.91;5016799;28;20189;-86
2021/04/04 08:38:09;;;;;;;3.33;2.90;;;7.40;68.10;;;7.04;50.31;95337.16;5032732;28;20232;-86
2021/04/04 08:40:39;;;;;;;5.95;3.47;;;7.40;68.40;;;7.27;49.93;95331.34;5040495;28;20200;-85
2021/04/04 08:43:07;;;;;;;6.78;4.05;;;7.50;68.70;;;7.49;50.14;95328.09;5035652;28;20219;-86
2021/04/04 08:45:48;;;;;;;4.32;3.50;;;7.60;69.00;;;7.69;50.61;95323.38;5052465;28;20215;-85
2021/04/04 08:48:16;;;;;;;3.63;2.67;;;7.80;68.60;;;7.99;50.67;95323.66;5048712;28;20637;-86
2021/04/04 08:50:44;;;;;;;3.22;2.83;;;8.00;69.70;;;8.25;50.52;95314.00;5045892;28;20192;-84
2021/04/04 08:53:17;;;;;;;2.92;2.63;;;8.10;69.60;;;8.50;49.94;95312.16;5048907;28;20239;-85
2021/04/04 08:55:47;;;;;;;3.75;3.15;;;8.30;69.40;;;8.61;49.03;95318.81;5046761;28;20383;-85
2021/04/04 08:58:21;;;;;;;2.80;2.55;;;8.50;68.60;;;8.62;48.75;95310.81;5015465;28;20217;-85
2021/04/04 09:00:53;;;;;;;3.78;3.00;;;8.70;68.20;;;8.61;48.24;95317.03;5035284;28;20565;-85
2021/04/04 09:03:21;;;;;;;3.45;2.85;;;8.80;67.80;;;8.53;48.03;95311.81;5044636;28;20203;-86
2021/04/04 09:05:49;;;;;;;3.28;2.88;;;8.80;67.40;;;8.43;48.54;95311.97;5039229;28;20253;-86
2021/04/04 09:08:17;;;;;;;3.28;2.80;;;8.80;67.60;;;8.36;48.42;95308.44;5055504;28;20234;-85
2021/04/04 09:10:47;;;;;;;2.97;2.72;;;8.80;67.30;;;8.36;48.15;95307.59;5051433;28;20199;-84
2021/04/04 09:13:16;;;;;;;4.53;2.40;;;8.80;67.00;;;8.37;48.59;95296.97;5050742;28;20705;-84
2021/04/04 09:15:51;;;;;;;3.20;2.90;;;8.80;67.30;;;8.47;48.90;95302.03;5028755;28;20219;-86
2021/04/04 09:18:18;;;;;;;4.47;3.00;;;8.80;67.10;;;8.60;49.04;95301.50;5040186;28;20219;-86
2021/04/04 09:20:47;;;;;;;2.78;2.47;;;8.80;67.60;;;8.74;48.46;95297.34;5048186;28;20647;-84
2021/04/04 09:23:18;;;;;;;4.22;2.47;;;8.90;68.50;;;8.93;48.10;95298.75;5015891;28;20225;-86
2021/04/04 09:25:58;;;;;;;3.28;2.35;;;9.00;67.30;;;9.11;46.19;95291.44;5048718;28;20207;-87
2021/04/04 09:28:34;;;;;;;3.70;2.40;;;9.10;66.10;;;9.27;46.28;95287.09;5051519;28;20204;-86
2021/04/04 09:31:03;;;;;;;2.50;2.30;;;9.20;66.20;;;9.40;46.34;95278.66;5033486;28;20210;-86
2021/04/04 09:33:35;;;;;;;2.55;2.25;;;9.40;66.30;;;9.51;46.47;95285.25;5035422;28;20192;-85
2021/04/04 09:36:07;;;;;;;3.78;2.67;;;9.50;66.80;;;9.56;45.41;95280.34;5028911;28;20276;-86
2021/04/04 09:38:43;;;;;;;3.72;2.67;;;9.60;66.20;;;9.54;45.18;95283.09;5015576;28;20204;-86
2021/04/04 09:41:11;;;;;;;2.78;2.50;;;9.70;65.50;;;9.48;43.60;95286.44;5014499;28;20226;-85
2021/04/04 09:44:04;;;;;;;3.25;2.30;;;9.70;64.80;;;9.34;43.79;95274.94;5051439;28;20204;-85
2021/04/04 09:46:31;;;;;;;3.20;2.33;;;9.80;64.30;;;9.34;43.77;95287.19;5036044;28;20215;-85
2021/04/04 09:48:57;;;;;;;3.65;2.30;;;9.80;64.70;;;9.34;43.67;95274.09;5052031;28;20238;-86
2021/04/04 09:51:24;;;;;;;3.55;2.00;;;9.80;64.40;;;9.36;44.75;95275.56;5050855;28;20281;-87
2021/04/04 09:53:53;;;;;;;3.45;2.50;;;9.80;64.90;;;9.38;42.82;95278.00;5045640;28;20223;-85
2021/04/04 09:56:31;;;;;;;2.95;2.47;;;9.80;63.80;;;9.37;43.27;95271.16;5031743;28;20258;-85
2021/04/04 09:58:59;;;;;;;3.88;2.58;;;9.90;64.70;;;9.43;43.52;95270.44;5031549;28;20216;-85
2021/04/04 10:01:31;;;;;;;3.35;2.50;;;9.90;64.10;;;9.43;42.57;95270.44;5032788;28;20576;-85
2021/04/04 10:04:07;;;;;;;2.58;2.30;;;9.90;63.40;;;9.44;43.13;95275.50;5036652;28;20615;-86
2021/04/04 10:06:37;;;;;;;3.58;2.72;;;9.80;63.40;;;9.44;43.62;95274.69;5047546;28;20228;-85
2021/04/04 10:09:08;;;;;;;2.65;2.22;;;9.90;63.70;;;9.43;43.34;95270.44;5064941;28;20223;-85
2021/04/04 10:11:36;;;;;;;2.60;2.40;;;9.90;63.40;;;9.44;43.81;95274.69;5015458;28;20239;-85
2021/04/04 10:14:12;;;;;;;2.50;2.20;;;9.90;63.80;;;9.49;43.82;95267.13;5031462;28;20204;-84
2021/04/04 10:16:40;;;;;;;2.13;1.92;;;10.00;62.00;;;9.50;43.26;95268.75;5017974;28;20221;-85
2021/04/04 10:19:15;;;;;;;2.60;2.38;;;10.00;62.10;;;9.52;42.92;95274.63;5018947;28;20207;-85
2021/04/04 10:22:01;;;;;;;2.80;2.00;;;9.90;63.20;;;9.49;41.90;95267.13;5051420;28;20223;-86
2021/04/04 10:24:35;;;;;;;4.22;2.08;;;9.90;62.40;;;9.50;42.83;95275.81;5019382;28;20235;-85
2021/04/04 10:27:27;;;;;;;4.55;2.30;;;9.90;62.80;;;9.45;41.00;95274.50;5044539;28;20213;-85
2021/04/04 10:30:18;;;;;;;2.47;1.83;;;9.90;62.40;;;9.43;41.95;95273.88;5051844;28;20189;-85
2021/04/04 10:32:50;;;;;;;2.67;2.15;;;9.90;62.20;;;9.42;41.90;95281.91;5048996;28;20774;-86
2021/04/04 10:35:37;;;;;;;4.55;2.40;;;9.90;62.30;;;9.36;41.08;95279.97;5038693;28;20239;-85
2021/04/04 10:38:14;;;;;;;4.07;2.47;;;9.90;61.90;;;9.26;40.26;95270.59;5022101;28;20224;-84
2021/04/04 10:40:59;;;;;;;3.67;2.05;;;9.90;61.00;;;9.29;41.21;95275.44;5054659;28;20206;-84
2021/04/04 10:43:36;;;;;;;2.78;1.90;;;9.80;61.70;;;9.36;40.80;95274.75;5038695;28;20223;-85
2021/04/04 10:46:08;;;;;;;2.88;2.15;;;9.80;61.50;;;9.40;40.00;95279.47;5034677;28;20200;-86
2021/04/04 10:48:45;;;;;;;2.50;2.22;;;9.90;61.30;;;9.48;41.23;95268.09;5039662;28;20192;-85
2021/04/04 10:51:19;;;;;;;2.20;2.00;;;9.90;61.60;;;9.61;42.08;95267.53;5054881;28;20188;-86
2021/04/04 10:53:47;;;;;;;2.40;2.17;;;9.90;62.30;;;9.72;38.92;95271.53;5054751;28;20203;-86
2021/04/04 10:56:15;;;;;;;2.25;1.90;;;10.00;59.90;;;9.84;39.96;95266.66;5037784;28;20203;-85
2021/04/04 10:58:43;;;;;;;3.13;2.40;;;10.10;60.10;;;9.94;39.80;95262.78;5036094;28;20199;-84
2021/04/04 11:01:12;;;;;;;2.42;1.90;;;10.20;60.10;;;10.02;37.92;95266.31;5034080;28;20271;-85
2021/04/04 11:03:40;;;;;;;3.22;2.05;;;10.20;59.20;;;10.06;38.16;95255.31;5052675;28;20199;-84
2021/04/04 11:06:08;;;;;;;2.33;2.00;;;10.40;59.20;;;10.15;39.52;95261.25;5050617;28;20197;-85
2021/04/04 11:08:35;;;;;;;1.95;1.73;;;10.40;59.30;;;10.25;40.37;95258.38;5034289;28;20204;-85
2021/04/04 11:11:03;;;;;;;2.40;1.95;;;10.50;60.10;;;10.31;39.14;95248.97;5034139;28;20208;-84
2021/04/04 11:13:30;;;;;;;1.88;1.77;;;10.60;59.30;;;10.30;38.41;95255.22;5034130;28;20254;-85